createdAt,value
2017-09-22T00:00:04.507Z,62.46
2017-09-22T00:01:04.435Z,62.46
2017-09-22T00:02:04.346Z,62.74
2017-09-22T00:03:04.263Z,63.48
2017-09-22T00:04:04.189Z,63.48
2017-09-22T00:05:04.103Z,63.10
2017-09-22T00:06:04.021Z,63.29
2017-09-22T00:07:03.938Z,63.13
2017-09-22T00:08:03.854Z,63.32
2017-09-22T00:09:03.779Z,63.22
2017-09-22T00:10:03.700Z,63.03
2017-09-22T00:11:03.614Z,62.55
2017-09-22T00:12:03.537Z,63.13
2017-09-22T00:13:03.453Z,63.10
2017-09-22T00:14:03.407Z,62.84
2017-09-22T00:15:03.287Z,63.13
2017-09-22T00:16:03.208Z,63.03
2017-09-22T00:17:03.133Z,63.29
2017-09-22T00:18:03.050Z,63.29
2017-09-22T00:19:02.967Z,62.93
2017-09-22T00:20:02.883Z,63.13
2017-09-22T00:21:02.799Z,62.81
2017-09-22T00:22:02.727Z,63.29
2017-09-22T00:23:02.642Z,63.39
2017-09-22T00:24:02.561Z,63.29
2017-09-22T00:25:02.483Z,63.29
2017-09-22T00:26:02.401Z,64.05
2017-09-22T00:27:02.314Z,63.76
2017-09-22T00:28:02.237Z,63.48
2017-09-22T00:29:02.152Z,63.19
2017-09-22T00:30:02.072Z,63.29
2017-09-22T00:31:01.988Z,63.48
2017-09-22T00:32:01.905Z,63.10
2017-09-22T00:33:01.863Z,63.57
2017-09-22T00:34:01.748Z,63.19
2017-09-22T00:35:01.668Z,63.19
2017-09-22T00:36:01.584Z,64.02
2017-09-22T00:37:01.499Z,63.96
2017-09-22T00:38:01.419Z,63.48
2017-09-22T00:39:01.338Z,62.90
2017-09-22T00:40:01.257Z,63.00
2017-09-22T00:41:01.170Z,63.00
2017-09-22T00:42:01.093Z,63.57
2017-09-22T00:43:01.012Z,63.67
2017-09-22T00:44:00.929Z,64.40
2017-09-22T00:45:00.850Z,64.05
2017-09-22T00:46:00.775Z,63.96
2017-09-22T00:47:00.692Z,63.73
2017-09-22T00:48:00.600Z,64.59
2017-09-22T00:49:00.521Z,64.59
2017-09-22T00:50:00.447Z,64.59
2017-09-22T00:51:00.357Z,64.12
2017-09-22T00:52:00.277Z,64.02
2017-09-22T00:53:00.197Z,64.50
2017-09-22T00:54:00.145Z,64.02
2017-09-22T00:55:00.037Z,64.15
2017-09-22T00:55:59.951Z,64.12
2017-09-22T00:56:59.870Z,64.12
2017-09-22T00:57:59.786Z,64.05
2017-09-22T00:58:59.715Z,64.12
2017-09-22T00:59:59.620Z,64.59
2017-09-22T01:00:59.550Z,64.88
2017-09-22T01:01:59.463Z,64.59
2017-09-22T01:02:59.381Z,65.17
2017-09-22T01:03:59.297Z,64.69
2017-09-22T01:04:59.217Z,64.40
2017-09-22T01:05:59.138Z,63.86
2017-09-22T01:06:59.053Z,63.39
2017-09-22T01:07:58.978Z,63.29
2017-09-22T01:08:58.891Z,63.64
2017-09-22T01:09:58.807Z,63.26
2017-09-22T01:10:58.719Z,63.45
2017-09-22T01:11:58.642Z,63.16
2017-09-22T01:12:58.567Z,64.02
2017-09-22T01:13:58.480Z,64.02
2017-09-22T01:14:58.407Z,64.22
2017-09-22T01:15:58.312Z,64.02
2017-09-22T01:16:58.231Z,63.64
2017-09-22T01:17:58.152Z,64.12
2017-09-22T01:18:58.071Z,64.22
2017-09-22T01:19:57.987Z,64.22
2017-09-22T01:20:57.907Z,64.59
2017-09-22T01:21:57.830Z,64.69
2017-09-22T01:22:57.745Z,64.59
2017-09-22T01:23:57.657Z,64.69
2017-09-22T01:24:57.584Z,64.88
2017-09-22T01:25:57.501Z,64.98
2017-09-22T01:26:57.415Z,64.75
2017-09-22T01:27:57.335Z,65.33
2017-09-22T01:28:57.251Z,65.71
2017-09-22T01:29:57.173Z,65.61
2017-09-22T01:30:57.091Z,65.61
2017-09-22T01:31:57.002Z,65.74
2017-09-22T01:32:56.923Z,65.81
2017-09-22T01:33:56.842Z,65.81
2017-09-22T01:34:56.760Z,65.36
2017-09-22T01:35:56.676Z,64.59
2017-09-22T01:36:56.598Z,64.98
2017-09-22T01:37:56.515Z,65.94
2017-09-22T01:38:56.435Z,65.14
2017-09-22T01:39:56.353Z,65.17
2017-09-22T01:40:56.267Z,64.98
2017-09-22T01:41:56.192Z,65.26
2017-09-22T01:42:56.104Z,65.17
2017-09-22T01:43:56.029Z,65.26
2017-09-22T01:44:55.945Z,64.79
2017-09-22T01:45:55.859Z,65.17
2017-09-22T01:46:55.779Z,65.26
2017-09-22T01:47:55.700Z,64.79
2017-09-22T01:48:55.616Z,65.04
2017-09-22T01:49:55.534Z,65.33
2017-09-22T01:50:55.448Z,64.95
2017-09-22T01:51:55.364Z,64.98
2017-09-22T01:52:55.285Z,65.17
2017-09-22T01:53:55.205Z,64.85
2017-09-22T01:54:55.131Z,65.61
2017-09-22T01:55:55.042Z,66.00
2017-09-22T01:56:54.963Z,66.00
2017-09-22T01:57:54.876Z,65.90
2017-09-22T01:58:54.794Z,65.52
2017-09-22T01:59:54.717Z,65.42
2017-09-22T02:00:54.634Z,65.71
2017-09-22T02:01:54.550Z,66.09
2017-09-22T02:02:54.476Z,66.38
2017-09-22T02:03:54.377Z,66.00
2017-09-22T02:04:54.298Z,65.90
2017-09-22T02:05:54.222Z,66.09
2017-09-22T02:06:54.132Z,65.61
2017-09-22T02:07:54.056Z,65.90
2017-09-22T02:08:53.975Z,65.71
2017-09-22T02:09:53.912Z,65.81
2017-09-22T02:10:53.809Z,65.52
2017-09-22T02:11:53.724Z,66.19
2017-09-22T02:12:53.642Z,65.81
2017-09-22T02:13:53.563Z,65.23
2017-09-22T02:14:53.478Z,65.23
2017-09-22T02:15:53.415Z,65.71
2017-09-22T02:16:53.314Z,65.14
2017-09-22T02:17:53.238Z,65.71
2017-09-22T02:18:53.160Z,65.61
2017-09-22T02:19:53.072Z,65.52
2017-09-22T02:20:52.993Z,65.14
2017-09-22T02:21:52.902Z,65.61
2017-09-22T02:22:52.820Z,65.52
2017-09-22T02:23:52.738Z,66.28
2017-09-22T02:24:52.655Z,65.71
2017-09-22T02:25:52.574Z,65.61
2017-09-22T02:26:52.492Z,65.33
2017-09-22T02:27:52.409Z,65.33
2017-09-22T02:28:52.329Z,65.61
2017-09-22T02:29:52.244Z,65.33
2017-09-22T02:30:52.171Z,65.71
2017-09-22T02:31:52.085Z,65.90
2017-09-22T02:32:51.996Z,64.66
2017-09-22T02:33:51.912Z,65.23
2017-09-22T02:34:51.840Z,65.14
2017-09-22T02:35:51.752Z,65.71
2017-09-22T02:36:51.670Z,65.61
2017-09-22T02:37:51.584Z,65.71
2017-09-22T02:38:51.511Z,65.42
2017-09-22T02:39:51.435Z,65.33
2017-09-22T02:40:51.344Z,66.16
2017-09-22T02:41:51.256Z,65.87
2017-09-22T02:42:51.178Z,65.52
2017-09-22T02:43:51.094Z,65.33
2017-09-22T02:44:51.011Z,65.14
2017-09-22T02:45:50.931Z,65.33
2017-09-22T02:46:50.846Z,65.33
2017-09-22T02:47:50.763Z,65.52
2017-09-22T02:48:50.685Z,65.23
2017-09-22T02:49:50.629Z,65.77
2017-09-22T02:50:50.529Z,65.39
2017-09-22T02:51:50.435Z,65.52
2017-09-22T02:52:50.369Z,65.87
2017-09-22T02:53:50.270Z,65.97
2017-09-22T02:54:50.198Z,65.77
2017-09-22T02:55:50.109Z,65.97
2017-09-22T02:56:50.025Z,65.97
2017-09-22T02:57:49.938Z,65.48
2017-09-22T02:58:49.857Z,65.48
2017-09-22T02:59:49.775Z,65.04
2017-09-22T03:00:49.698Z,65.71
2017-09-22T03:01:49.611Z,65.68
2017-09-22T03:02:49.535Z,65.14
2017-09-22T03:03:49.448Z,65.39
2017-09-22T03:04:49.362Z,65.48
2017-09-22T03:05:49.283Z,65.77
2017-09-22T03:06:49.208Z,65.48
2017-09-22T03:07:49.117Z,65.58
2017-09-22T03:08:49.038Z,65.48
2017-09-22T03:09:48.962Z,65.58
2017-09-22T03:10:48.874Z,66.06
2017-09-22T03:11:48.788Z,65.48
2017-09-22T03:12:48.709Z,65.48
2017-09-22T03:13:48.623Z,65.68
2017-09-22T03:14:48.544Z,65.68
2017-09-22T03:15:48.459Z,65.58
2017-09-22T03:16:48.376Z,65.58
2017-09-22T03:17:48.291Z,65.30
2017-09-22T03:18:48.209Z,65.20
2017-09-22T03:19:48.136Z,65.68
2017-09-22T03:20:48.050Z,65.58
2017-09-22T03:21:47.962Z,65.87
2017-09-22T03:22:47.880Z,65.87
2017-09-22T03:23:47.807Z,65.68
2017-09-22T03:24:47.715Z,65.48
2017-09-22T03:25:47.635Z,65.68
2017-09-22T03:26:47.556Z,65.68
2017-09-22T03:27:47.472Z,65.87
2017-09-22T03:28:47.387Z,65.58
2017-09-22T03:29:47.306Z,65.58
2017-09-22T03:30:47.220Z,65.48
2017-09-22T03:31:47.141Z,65.97
2017-09-22T03:32:47.057Z,65.87
2017-09-22T03:33:46.977Z,65.97
2017-09-22T03:34:46.894Z,65.77
2017-09-22T03:35:46.808Z,65.87
2017-09-22T03:36:46.726Z,66.06
2017-09-22T03:37:46.644Z,66.06
2017-09-22T03:38:46.560Z,65.97
2017-09-22T03:39:46.478Z,65.87
2017-09-22T03:40:46.403Z,65.58
2017-09-22T03:41:46.312Z,66.16
2017-09-22T03:42:46.231Z,66.16
2017-09-22T03:43:46.147Z,66.06
2017-09-22T03:44:46.072Z,65.87
2017-09-22T03:45:45.983Z,65.68
2017-09-22T03:46:45.903Z,65.77
2017-09-22T03:47:45.836Z,65.30
2017-09-22T03:48:45.739Z,65.68
2017-09-22T03:49:45.654Z,65.39
2017-09-22T03:50:45.568Z,65.58
2017-09-22T03:51:45.495Z,65.30
2017-09-22T03:52:45.415Z,65.01
2017-09-22T03:53:45.326Z,65.87
2017-09-22T03:54:45.239Z,65.68
2017-09-22T03:55:45.162Z,65.87
2017-09-22T03:56:45.077Z,65.93
2017-09-22T03:57:44.996Z,65.97
2017-09-22T03:58:44.912Z,65.77
2017-09-22T03:59:44.830Z,65.97
2017-09-22T04:00:44.749Z,66.13
2017-09-22T04:01:44.664Z,65.87
2017-09-22T04:02:44.585Z,66.41
2017-09-22T04:03:44.498Z,66.50
2017-09-22T04:04:44.416Z,65.93
2017-09-22T04:05:44.353Z,65.97
2017-09-22T04:06:44.254Z,66.03
2017-09-22T04:07:44.168Z,65.77
2017-09-22T04:08:44.085Z,65.97
2017-09-22T04:09:44.010Z,65.39
2017-09-22T04:10:43.930Z,65.87
2017-09-22T04:11:43.838Z,65.55
2017-09-22T04:12:43.760Z,66.03
2017-09-22T04:13:43.678Z,66.22
2017-09-22T04:14:43.596Z,65.74
2017-09-22T04:15:43.503Z,65.87
2017-09-22T04:16:43.422Z,65.30
2017-09-22T04:17:43.346Z,65.58
2017-09-22T04:18:43.262Z,65.17
2017-09-22T04:19:43.178Z,65.36
2017-09-22T04:20:43.108Z,65.74
2017-09-22T04:21:43.019Z,65.64
2017-09-22T04:22:42.932Z,65.55
2017-09-22T04:23:42.842Z,65.74
2017-09-22T04:24:42.766Z,65.93
2017-09-22T04:25:42.685Z,65.55
2017-09-22T04:26:42.596Z,66.13
2017-09-22T04:27:42.517Z,66.03
2017-09-22T04:28:42.433Z,66.03
2017-09-22T04:29:42.351Z,66.50
2017-09-22T04:30:42.271Z,66.89
2017-09-22T04:31:42.179Z,66.22
2017-09-22T04:32:42.101Z,66.03
2017-09-22T04:33:42.019Z,66.03
2017-09-22T04:34:41.941Z,66.41
2017-09-22T04:35:41.856Z,66.22
2017-09-22T04:36:41.791Z,65.84
2017-09-22T04:37:41.688Z,65.55
2017-09-22T04:38:41.603Z,65.93
2017-09-22T04:39:41.521Z,66.22
2017-09-22T04:40:41.442Z,65.93
2017-09-22T04:41:41.359Z,66.70
2017-09-22T04:42:41.274Z,66.76
2017-09-22T04:43:41.192Z,67.24
2017-09-22T04:44:41.113Z,66.31
2017-09-22T04:45:41.024Z,66.60
2017-09-22T04:46:40.941Z,66.22
2017-09-22T04:47:40.866Z,66.41
2017-09-22T04:48:40.774Z,66.31
2017-09-22T04:49:40.701Z,66.60
2017-09-22T04:50:40.614Z,66.99
2017-09-22T04:51:40.534Z,66.70
2017-09-22T04:52:40.454Z,66.70
2017-09-22T04:53:40.365Z,66.60
2017-09-22T04:54:40.280Z,67.33
2017-09-22T04:55:40.197Z,66.31
2017-09-22T04:56:40.114Z,66.50
2017-09-22T04:57:40.029Z,66.31
2017-09-22T04:58:39.947Z,66.22
2017-09-22T04:59:39.871Z,66.79
2017-09-22T05:00:39.783Z,66.99
2017-09-22T05:01:39.701Z,66.41
2017-09-22T05:02:39.617Z,66.50
2017-09-22T05:03:39.534Z,66.60
2017-09-22T05:04:39.452Z,67.43
2017-09-22T05:05:39.363Z,67.05
2017-09-22T05:06:39.287Z,66.31
2017-09-22T05:07:39.198Z,67.24
2017-09-22T05:08:39.118Z,67.33
2017-09-22T05:09:39.035Z,66.85
2017-09-22T05:10:38.966Z,67.33
2017-09-22T05:11:38.874Z,67.05
2017-09-22T05:12:38.789Z,67.33
2017-09-22T05:13:38.704Z,67.33
2017-09-22T05:14:38.631Z,67.43
2017-09-22T05:15:38.541Z,67.33
2017-09-22T05:16:38.458Z,66.95
2017-09-22T05:17:38.370Z,67.43
2017-09-22T05:18:38.286Z,67.52
2017-09-22T05:19:38.210Z,67.62
2017-09-22T05:20:38.123Z,67.43
2017-09-22T05:21:38.034Z,67.71
2017-09-22T05:22:37.956Z,68.00
2017-09-22T05:23:37.871Z,68.29
2017-09-22T05:24:37.795Z,67.81
2017-09-22T05:25:37.706Z,67.91
2017-09-22T05:26:37.624Z,68.10
2017-09-22T05:27:37.544Z,68.19
2017-09-22T05:28:37.458Z,68.00
2017-09-22T05:29:37.374Z,68.00
2017-09-22T05:30:37.293Z,67.71
2017-09-22T05:31:37.207Z,67.71
2017-09-22T05:32:37.131Z,67.33
2017-09-22T05:33:37.051Z,67.05
2017-09-22T05:34:36.968Z,67.52
2017-09-22T05:35:36.879Z,66.95
2017-09-22T05:36:36.791Z,67.62
2017-09-22T05:37:36.712Z,67.91
2017-09-22T05:38:36.628Z,67.81
2017-09-22T05:39:36.550Z,67.91
2017-09-22T05:40:36.465Z,68.19
2017-09-22T05:41:36.389Z,68.19
2017-09-22T05:42:36.296Z,67.91
2017-09-22T05:43:36.214Z,67.91
2017-09-22T05:44:36.131Z,67.71
2017-09-22T05:45:36.049Z,68.57
2017-09-22T05:46:35.966Z,67.81
2017-09-22T05:47:35.882Z,67.65
2017-09-22T05:48:35.800Z,68.29
2017-09-22T05:49:35.713Z,68.13
2017-09-22T05:50:35.631Z,67.91
2017-09-22T05:51:35.551Z,67.81
2017-09-22T05:52:35.471Z,67.81
2017-09-22T05:53:35.384Z,68.13
2017-09-22T05:54:35.302Z,68.00
2017-09-22T05:55:35.229Z,68.29
2017-09-22T05:56:35.144Z,68.04
2017-09-22T05:57:35.052Z,68.10
2017-09-22T05:58:34.969Z,67.71
2017-09-22T05:59:34.891Z,68.29
2017-09-22T06:00:34.803Z,68.57
2017-09-22T06:01:34.725Z,68.76
2017-09-22T06:02:34.640Z,69.24
2017-09-22T06:03:34.558Z,68.96
2017-09-22T06:04:34.483Z,68.86
2017-09-22T06:05:34.390Z,68.76
2017-09-22T06:06:34.311Z,68.67
2017-09-22T06:07:34.223Z,68.48
2017-09-22T06:08:34.139Z,68.38
2017-09-22T06:09:34.058Z,68.38
2017-09-22T06:10:33.971Z,68.67
2017-09-22T06:11:33.894Z,68.13
2017-09-22T06:12:33.814Z,68.48
2017-09-22T06:13:33.725Z,69.05
2017-09-22T06:14:33.651Z,68.76
2017-09-22T06:15:33.560Z,68.99
2017-09-22T06:16:33.477Z,69.15
2017-09-22T06:17:33.397Z,68.70
2017-09-22T06:18:33.310Z,69.53
2017-09-22T06:19:33.228Z,69.15
2017-09-22T06:20:33.146Z,69.53
2017-09-22T06:21:33.061Z,69.66
2017-09-22T06:22:32.981Z,68.96
2017-09-22T06:23:32.894Z,69.72
2017-09-22T06:24:32.820Z,69.76
2017-09-22T06:25:32.737Z,69.27
2017-09-22T06:26:32.650Z,69.85
2017-09-22T06:27:32.570Z,69.47
2017-09-22T06:28:32.482Z,69.66
2017-09-22T06:29:32.401Z,70.20
2017-09-22T06:30:32.320Z,69.37
2017-09-22T06:31:32.246Z,69.27
2017-09-22T06:32:32.157Z,69.34
2017-09-22T06:33:32.074Z,70.10
2017-09-22T06:34:31.991Z,69.91
2017-09-22T06:35:31.917Z,70.01
2017-09-22T06:36:31.829Z,69.91
2017-09-22T06:37:31.741Z,70.01
2017-09-22T06:38:31.675Z,70.10
2017-09-22T06:39:31.578Z,69.91
2017-09-22T06:40:31.496Z,70.10
2017-09-22T06:41:31.417Z,69.91
2017-09-22T06:42:31.336Z,69.76
2017-09-22T06:43:31.250Z,69.66
2017-09-22T06:44:31.163Z,69.56
2017-09-22T06:45:31.100Z,69.09
2017-09-22T06:46:30.999Z,69.27
2017-09-22T06:47:30.916Z,69.47
2017-09-22T06:48:30.835Z,69.18
2017-09-22T06:49:30.749Z,70.14
2017-09-22T06:50:30.671Z,70.23
2017-09-22T06:51:30.586Z,69.85
2017-09-22T06:52:30.501Z,70.04
2017-09-22T06:53:30.423Z,70.20
2017-09-22T06:54:30.343Z,70.61
2017-09-22T06:55:30.260Z,70.61
2017-09-22T06:56:30.177Z,70.23
2017-09-22T06:57:30.094Z,70.23
2017-09-22T06:58:30.012Z,70.33
2017-09-22T06:59:29.923Z,70.23
2017-09-22T07:00:29.876Z,70.81
2017-09-22T07:01:29.768Z,71.19
2017-09-22T07:02:29.687Z,71.00
2017-09-22T07:03:29.599Z,70.33
2017-09-22T07:04:29.523Z,69.76
2017-09-22T07:05:29.449Z,69.95
2017-09-22T07:06:29.353Z,70.23
2017-09-22T07:07:29.274Z,70.52
2017-09-22T07:08:29.187Z,70.67
2017-09-22T07:09:29.112Z,71.72
2017-09-22T07:10:29.034Z,72.49
2017-09-22T07:11:28.940Z,71.86
2017-09-22T07:12:28.858Z,71.95
2017-09-22T07:13:28.782Z,71.57
2017-09-22T07:14:28.700Z,71.38
2017-09-22T07:15:28.615Z,70.90
2017-09-22T07:16:28.530Z,70.75
2017-09-22T07:17:28.451Z,70.75
2017-09-22T07:18:28.375Z,70.61
2017-09-22T07:19:28.286Z,71.86
2017-09-22T07:20:28.227Z,72.39
2017-09-22T07:21:28.119Z,74.37
2017-09-22T07:22:28.039Z,73.63
2017-09-22T07:23:27.962Z,73.00
2017-09-22T07:24:27.875Z,71.47
2017-09-22T07:25:27.791Z,71.19
2017-09-22T07:26:27.710Z,71.70
2017-09-22T07:27:27.632Z,71.42
2017-09-22T07:28:27.553Z,71.22
2017-09-22T07:29:27.462Z,71.03
2017-09-22T07:30:27.381Z,70.46
2017-09-22T07:31:27.299Z,70.75
2017-09-22T07:32:27.216Z,70.65
2017-09-22T07:33:27.136Z,71.03
2017-09-22T07:34:27.086Z,69.98
2017-09-22T07:35:26.973Z,70.17
2017-09-22T07:36:26.890Z,70.36
2017-09-22T07:37:26.809Z,70.65
2017-09-22T07:38:26.728Z,70.75
2017-09-22T07:39:26.644Z,69.70
2017-09-22T07:40:26.562Z,70.07
2017-09-22T07:41:26.482Z,69.98
2017-09-22T07:42:26.409Z,69.98
2017-09-22T07:43:26.319Z,69.35
2017-09-22T07:44:26.236Z,69.44
2017-09-22T07:45:26.155Z,69.89
2017-09-22T07:46:26.076Z,69.89
2017-09-22T07:47:26.015Z,69.98
2017-09-22T07:48:25.916Z,70.84
2017-09-22T07:49:25.829Z,70.27
2017-09-22T07:50:25.745Z,69.70
2017-09-22T07:51:25.666Z,69.70
2017-09-22T07:52:25.590Z,69.70
2017-09-22T07:53:25.510Z,70.01
2017-09-22T07:54:25.442Z,69.15
2017-09-22T07:55:25.344Z,69.44
2017-09-22T07:56:25.269Z,68.23
2017-09-22T07:57:25.180Z,67.85
2017-09-22T07:58:25.100Z,68.96
2017-09-22T07:59:25.019Z,68.80
2017-09-22T08:00:24.950Z,68.13
2017-09-22T08:01:24.874Z,67.18
2017-09-22T08:02:24.777Z,67.31
2017-09-22T08:03:24.695Z,66.41
2017-09-22T08:04:24.617Z,68.04
2017-09-22T08:05:24.532Z,67.91
2017-09-22T08:06:24.452Z,68.07
2017-09-22T08:07:24.376Z,66.64
2017-09-22T08:08:24.334Z,65.71
2017-09-22T08:09:24.217Z,65.62
2017-09-22T08:10:24.135Z,65.39
2017-09-22T08:11:24.076Z,65.33
2017-09-22T08:12:23.972Z,64.89
2017-09-22T08:13:23.894Z,63.57
2017-09-22T08:14:23.835Z,62.71
2017-09-22T08:15:23.735Z,62.55
2017-09-22T08:16:23.653Z,61.88
2017-09-22T08:17:23.575Z,61.02
2017-09-22T08:18:23.509Z,60.66
2017-09-22T08:19:23.422Z,60.66
2017-09-22T08:20:23.337Z,59.70
2017-09-22T08:21:23.265Z,59.32
2017-09-22T08:22:23.184Z,60.11
2017-09-22T08:23:23.103Z,59.16
2017-09-22T08:24:23.036Z,58.10
2017-09-22T08:25:22.952Z,57.52
2017-09-22T08:26:22.876Z,58.00
2017-09-22T08:27:22.791Z,58.17
2017-09-22T08:28:22.723Z,58.58
2017-09-22T08:29:22.644Z,57.71
2017-09-22T08:30:22.561Z,58.03
2017-09-22T08:31:22.497Z,56.21
2017-09-22T08:32:22.413Z,56.98
2017-09-22T08:33:22.332Z,56.40
2017-09-22T08:34:22.252Z,56.43
2017-09-22T08:35:22.177Z,56.04
2017-09-22T08:36:22.097Z,55.05
2017-09-22T08:37:22.020Z,56.04
2017-09-22T08:38:21.943Z,56.04
2017-09-22T08:39:21.866Z,55.85
2017-09-22T08:40:21.794Z,55.68
2017-09-22T08:41:21.731Z,55.40
2017-09-22T08:42:21.632Z,54.82
2017-09-22T08:43:21.562Z,55.52
2017-09-22T08:44:21.490Z,54.65
2017-09-22T08:45:21.416Z,54.36
2017-09-22T08:46:21.341Z,53.78
2017-09-22T08:47:21.261Z,52.89
2017-09-22T08:48:21.187Z,53.40
2017-09-22T08:49:21.110Z,53.50
2017-09-22T08:50:21.049Z,52.85
2017-09-22T08:51:20.963Z,52.95
2017-09-22T08:52:20.893Z,53.05
2017-09-22T08:53:20.808Z,51.98
2017-09-22T08:54:20.737Z,52.08
2017-09-22T08:55:20.661Z,52.92
2017-09-22T08:56:20.588Z,52.73
2017-09-22T08:57:20.513Z,53.21
2017-09-22T08:58:20.441Z,52.06
2017-09-22T08:59:20.362Z,51.96
2017-09-22T09:00:20.289Z,51.76
2017-09-22T09:01:20.219Z,53.59
2017-09-22T09:02:20.145Z,52.75
2017-09-22T09:03:20.067Z,51.89
2017-09-22T09:04:19.989Z,51.34
2017-09-22T09:05:19.923Z,51.70
2017-09-22T09:06:19.844Z,52.06
2017-09-22T09:07:19.776Z,52.92
2017-09-22T09:08:19.691Z,52.66
2017-09-22T09:09:19.617Z,52.30
2017-09-22T09:10:19.552Z,51.21
2017-09-22T09:11:19.470Z,51.43
2017-09-22T09:12:19.395Z,50.95
2017-09-22T09:13:19.322Z,51.46
2017-09-22T09:14:19.245Z,50.18
2017-09-22T09:15:19.172Z,51.26
2017-09-22T09:16:19.096Z,50.40
2017-09-22T09:17:19.031Z,51.07
2017-09-22T09:18:18.952Z,50.21
2017-09-22T09:19:18.880Z,50.21
2017-09-22T09:20:18.809Z,50.30
2017-09-22T09:21:18.736Z,49.17
2017-09-22T09:22:18.670Z,48.88
2017-09-22T09:23:18.599Z,49.73
2017-09-22T09:24:18.523Z,50.30
2017-09-22T09:25:18.451Z,50.47
2017-09-22T09:26:18.375Z,50.78
2017-09-22T09:27:18.305Z,50.59
2017-09-22T09:28:18.247Z,49.65
2017-09-22T09:29:18.164Z,50.21
2017-09-22T09:30:18.100Z,50.11
2017-09-22T09:31:18.022Z,49.94
2017-09-22T09:32:17.956Z,50.04
2017-09-22T09:33:17.886Z,50.47
2017-09-22T09:34:17.810Z,51.43
2017-09-22T09:35:17.735Z,51.46
2017-09-22T09:36:17.671Z,51.07
2017-09-22T09:37:17.591Z,50.30
2017-09-22T09:38:17.532Z,50.52
2017-09-22T09:39:17.449Z,49.94
2017-09-22T09:40:17.379Z,49.65
2017-09-22T09:41:17.310Z,50.13
2017-09-22T09:42:17.251Z,49.46
2017-09-22T09:43:17.169Z,48.59
2017-09-22T09:44:17.094Z,49.63
2017-09-22T09:45:17.026Z,49.82
2017-09-22T09:46:16.956Z,50.69
2017-09-22T09:47:16.880Z,50.49
2017-09-22T09:48:16.811Z,49.94
2017-09-22T09:49:16.738Z,50.04
2017-09-22T09:50:16.666Z,49.07
2017-09-22T09:51:16.597Z,49.73
2017-09-22T09:52:16.527Z,50.40
2017-09-22T09:53:16.454Z,50.32
2017-09-22T09:54:16.386Z,49.07
2017-09-22T09:55:16.315Z,50.09
2017-09-22T09:56:16.236Z,51.26
2017-09-22T09:57:16.166Z,50.11
2017-09-22T09:58:16.094Z,50.04
2017-09-22T09:59:16.023Z,50.42
2017-09-22T10:00:15.951Z,50.26
2017-09-22T10:01:15.879Z,49.39
2017-09-22T10:02:15.808Z,49.19
2017-09-22T10:03:15.739Z,48.90
2017-09-22T10:04:15.667Z,47.94
2017-09-22T10:05:15.608Z,48.90
2017-09-22T10:06:15.525Z,49.02
2017-09-22T10:07:15.468Z,47.94
2017-09-22T10:08:15.386Z,48.25
2017-09-22T10:09:15.316Z,46.90
2017-09-22T10:10:15.244Z,46.54
2017-09-22T10:11:15.174Z,47.19
2017-09-22T10:12:15.102Z,47.00
2017-09-22T10:13:15.043Z,47.19
2017-09-22T10:14:14.964Z,47.27
2017-09-22T10:15:14.905Z,47.19
2017-09-22T10:16:14.822Z,48.13
2017-09-22T10:17:14.751Z,47.77
2017-09-22T10:18:14.675Z,47.85
2017-09-22T10:19:14.628Z,47.77
2017-09-22T10:20:14.538Z,47.24
2017-09-22T10:21:14.494Z,48.90
2017-09-22T10:22:14.397Z,48.16
2017-09-22T10:23:14.321Z,46.73
2017-09-22T10:24:14.287Z,46.27
2017-09-22T10:25:14.179Z,45.89
2017-09-22T10:26:14.108Z,45.21
2017-09-22T10:27:14.038Z,45.31
2017-09-22T10:28:13.980Z,45.59
2017-09-22T10:29:13.898Z,44.36
2017-09-22T10:30:13.826Z,45.33
2017-09-22T10:31:13.761Z,44.65
2017-09-22T10:32:13.689Z,44.38
2017-09-22T10:33:13.624Z,43.99
2017-09-22T10:34:13.555Z,44.29
2017-09-22T10:35:13.487Z,43.15
2017-09-22T10:36:13.415Z,43.75
2017-09-22T10:37:13.347Z,42.37
2017-09-22T10:38:13.283Z,43.24
2017-09-22T10:39:13.219Z,43.15
2017-09-22T10:40:13.148Z,43.63
2017-09-22T10:41:13.078Z,43.73
2017-09-22T10:42:13.026Z,42.96
2017-09-22T10:43:12.960Z,43.92
2017-09-22T10:44:12.873Z,44.31
2017-09-22T10:45:12.809Z,42.49
2017-09-22T10:46:12.742Z,42.51
2017-09-22T10:47:12.681Z,41.83
2017-09-22T10:48:12.614Z,41.93
2017-09-22T10:49:12.538Z,41.55
2017-09-22T10:50:12.479Z,42.14
2017-09-22T10:51:12.410Z,41.55
2017-09-22T10:52:12.342Z,41.86
2017-09-22T10:53:12.342Z,41.74
2017-09-22T10:54:12.225Z,41.74
2017-09-22T10:55:12.138Z,41.83
2017-09-22T10:56:12.069Z,42.51
2017-09-22T10:57:12.004Z,42.82
2017-09-22T10:58:11.935Z,42.61
2017-09-22T10:59:11.863Z,43.68
2017-09-22T11:00:11.821Z,42.51
2017-09-22T11:01:11.739Z,41.87
2017-09-22T11:02:11.660Z,43.90
2017-09-22T11:03:11.596Z,43.73
2017-09-22T11:04:11.526Z,42.96
2017-09-22T11:05:11.456Z,43.75
2017-09-22T11:06:11.390Z,43.15
2017-09-22T11:07:11.330Z,42.49
2017-09-22T11:08:11.258Z,41.74
2017-09-22T11:09:11.186Z,42.61
2017-09-22T11:10:11.114Z,43.19
2017-09-22T11:11:11.051Z,42.41
2017-09-22T11:12:10.977Z,41.79
2017-09-22T11:13:10.922Z,42.57
2017-09-22T11:14:10.842Z,42.65
2017-09-22T11:15:10.785Z,43.80
2017-09-22T11:16:10.701Z,42.96
2017-09-22T11:17:10.635Z,43.05
2017-09-22T11:18:10.570Z,42.57
2017-09-22T11:19:10.501Z,42.49
2017-09-22T11:20:10.433Z,41.91
2017-09-22T11:21:10.363Z,44.02
2017-09-22T11:22:10.329Z,43.73
2017-09-22T11:23:10.231Z,43.95
2017-09-22T11:24:10.160Z,43.92
2017-09-22T11:25:10.096Z,43.73
2017-09-22T11:26:10.024Z,42.76
2017-09-22T11:27:09.959Z,44.23
2017-09-22T11:28:09.894Z,43.75
2017-09-22T11:29:09.825Z,43.05
2017-09-22T11:30:09.754Z,43.17
2017-09-22T11:31:09.693Z,42.08
2017-09-22T11:32:09.623Z,43.15
2017-09-22T11:33:09.571Z,43.61
2017-09-22T11:34:09.495Z,43.44
2017-09-22T11:35:09.420Z,43.98
2017-09-22T11:36:09.355Z,44.87
2017-09-22T11:37:09.296Z,45.18
2017-09-22T11:38:09.221Z,44.50
2017-09-22T11:39:09.148Z,43.82
2017-09-22T11:40:09.085Z,43.73
2017-09-22T11:41:09.012Z,43.15
2017-09-22T11:42:08.945Z,44.62
2017-09-22T11:43:08.867Z,44.21
2017-09-22T11:44:08.803Z,44.07
2017-09-22T11:45:08.728Z,45.91
2017-09-22T11:46:08.663Z,45.64
2017-09-22T11:47:08.584Z,45.18
2017-09-22T11:48:08.511Z,44.05
2017-09-22T11:49:08.444Z,45.23
2017-09-22T11:50:08.364Z,45.62
2017-09-22T11:51:08.302Z,45.25
2017-09-22T11:52:08.219Z,44.38
2017-09-22T11:53:08.152Z,45.14
2017-09-22T11:54:08.072Z,45.40
2017-09-22T11:55:08.000Z,44.73
2017-09-22T11:56:07.925Z,45.31
2017-09-22T11:57:07.857Z,45.21
2017-09-22T11:58:07.787Z,46.08
2017-09-22T11:59:07.700Z,45.09
2017-09-22T12:00:07.632Z,47.48
2017-09-22T12:01:07.555Z,47.80
2017-09-22T12:02:07.486Z,46.95
2017-09-22T12:03:07.409Z,47.07
2017-09-22T12:04:07.332Z,46.00
2017-09-22T12:05:07.261Z,46.20
2017-09-22T12:06:07.218Z,46.12
2017-09-22T12:07:07.111Z,45.25
2017-09-22T12:08:07.035Z,45.06
2017-09-22T12:09:06.962Z,45.23
2017-09-22T12:10:06.889Z,45.25
2017-09-22T12:11:06.834Z,45.06
2017-09-22T12:12:06.747Z,45.06
2017-09-22T12:13:06.669Z,45.45
2017-09-22T12:14:06.594Z,45.16
2017-09-22T12:15:06.525Z,44.29
2017-09-22T12:16:06.459Z,44.67
2017-09-22T12:17:06.380Z,44.96
2017-09-22T12:18:06.308Z,45.42
2017-09-22T12:19:06.227Z,45.25
2017-09-22T12:20:06.161Z,44.19
2017-09-22T12:21:06.085Z,45.23
2017-09-22T12:22:06.012Z,45.62
2017-09-22T12:23:05.933Z,45.23
2017-09-22T12:24:05.867Z,45.91
2017-09-22T12:25:05.788Z,45.04
2017-09-22T12:26:05.715Z,45.23
2017-09-22T12:27:05.642Z,45.06
2017-09-22T12:28:05.591Z,45.93
2017-09-22T12:29:05.510Z,46.88
2017-09-22T12:30:05.421Z,45.93
2017-09-22T12:31:05.341Z,45.93
2017-09-22T12:32:05.273Z,45.93
2017-09-22T12:33:05.205Z,46.00
2017-09-22T12:34:05.124Z,48.11
2017-09-22T12:35:05.051Z,48.13
2017-09-22T12:36:04.979Z,46.58
2017-09-22T12:37:04.901Z,47.00
2017-09-22T12:38:04.833Z,45.16
2017-09-22T12:39:04.758Z,44.38
2017-09-22T12:40:04.686Z,44.19
2017-09-22T12:41:04.611Z,43.88
2017-09-22T12:42:04.545Z,43.32
2017-09-22T12:43:04.464Z,43.78
2017-09-22T12:44:04.399Z,45.23
2017-09-22T12:45:04.313Z,45.04
2017-09-22T12:46:04.240Z,43.99
2017-09-22T12:47:04.169Z,43.80
2017-09-22T12:48:04.101Z,43.51
2017-09-22T12:49:04.024Z,42.45
2017-09-22T12:50:03.957Z,42.72
2017-09-22T12:51:03.885Z,43.71